SARE/RES METAR and TAF weather

Enter ICAO airport designator
Station Type Date Time Source
SARE METAR 2020/04/03 07:00 UTC NOAA

SARE 030700Z 26004KT CAVOK 13/13 Q1018


Station Type Date Time Source
SARE Decoded METAR 2020/04/03 07:00 UTC NOAA

Resistencia Aero., Argentina (SARE) 27-27S 059-03W 52M
Apr 03, 2020 - 03:00 AM EDT / 2020.04.03 0700 UTC
Wind: from the W (260 degrees) at 5 MPH (4 KT):0
Visibility: greater than 7 mile(s):0
Temperature: 55 F (13 C)
Dew Point: 55 F (13 C)
Relative Humidity: 100%
Pressure (altimeter): 30.06 in. Hg (1018 hPa)
ob: SARE 030700Z 26004KT CAVOK 13/13 Q1018
cycle: 7

Station Type Date Time Source
SARE TAF 2020/04/03 06:09 UTC NOAA

TAF TAF SARE 030500Z 0306/0406 22005KT CAVOK TX25/0318Z TN12/0310Z

Example: see airport list